sensor_id;sensor_type;location;lat;lon;timestamp;P1;durP1;ratioP1;P2;durP2;ratioP2
46643;SDS011;32371;51.032;5.816;2023-10-19T00:02:22;3.90;;;2.42;;
46643;SDS011;32371;51.032;5.816;2023-10-19T00:04:48;8.23;;;3.28;;
46643;SDS011;32371;51.032;5.816;2023-10-19T00:07:14;4.18;;;2.45;;
46643;SDS011;32371;51.032;5.816;2023-10-19T00:09:42;4.55;;;2.80;;
46643;SDS011;32371;51.032;5.816;2023-10-19T00:12:11;6.15;;;2.92;;
46643;SDS011;32371;51.032;5.816;2023-10-19T00:14:36;3.88;;;2.45;;
46643;SDS011;32371;51.032;5.816;2023-10-19T00:17:01;3.85;;;1.77;;
46643;SDS011;32371;51.032;5.816;2023-10-19T00:19:36;2.00;;;1.25;;
46643;SDS011;32371;51.032;5.816;2023-10-19T00:22:05;5.82;;;2.13;;
46643;SDS011;32371;51.032;5.816;2023-10-19T00:24:37;3.25;;;1.25;;
46643;SDS011;32371;51.032;5.816;2023-10-19T00:32:05;1.30;;;1.00;;
46643;SDS011;32371;51.032;5.816;2023-10-19T00:34:33;2.15;;;1.30;;
46643;SDS011;32371;51.032;5.816;2023-10-19T00:36:59;1.55;;;1.17;;
46643;SDS011;32371;51.032;5.816;2023-10-19T00:39:32;1.40;;;0.85;;
46643;SDS011;32371;51.032;5.816;2023-10-19T00:44:45;0.40;;;0.40;;
46643;SDS011;32371;51.032;5.816;2023-10-19T00:47:14;0.95;;;0.60;;
46643;SDS011;32371;51.032;5.816;2023-10-19T00:49:43;0.88;;;0.50;;
46643;SDS011;32371;51.032;5.816;2023-10-19T00:52:12;2.63;;;0.35;;
46643;SDS011;32371;51.032;5.816;2023-10-19T00:54:44;1.85;;;1.20;;
46643;SDS011;32371;51.032;5.816;2023-10-19T00:57:14;1.40;;;0.70;;
46643;SDS011;32371;51.032;5.816;2023-10-19T00:59:44;2.28;;;0.40;;
46643;SDS011;32371;51.032;5.816;2023-10-19T01:02:14;0.95;;;0.50;;
46643;SDS011;32371;51.032;5.816;2023-10-19T01:04:49;0.40;;;0.20;;
46643;SDS011;32371;51.032;5.816;2023-10-19T01:07:30;1.67;;;0.50;;
46643;SDS011;32371;51.032;5.816;2023-10-19T01:09:58;4.55;;;0.60;;
46643;SDS011;32371;51.032;5.816;2023-10-19T01:12:29;1.45;;;0.68;;
46643;SDS011;32371;51.032;5.816;2023-10-19T01:17:55;1.30;;;0.63;;
46643;SDS011;32371;51.032;5.816;2023-10-19T01:28:20;0.47;;;0.32;;
46643;SDS011;32371;51.032;5.816;2023-10-19T01:30:50;1.60;;;0.45;;
46643;SDS011;32371;51.032;5.816;2023-10-19T01:33:19;4.38;;;0.30;;
46643;SDS011;32371;51.032;5.816;2023-10-19T01:35:44;1.95;;;0.28;;
46643;SDS011;32371;51.032;5.816;2023-10-19T01:38:30;0.80;;;0.63;;
46643;SDS011;32371;51.032;5.816;2023-10-19T01:40:56;0.88;;;0.20;;
46643;SDS011;32371;51.032;5.816;2023-10-19T01:43:24;0.80;;;0.25;;
46643;SDS011;32371;51.032;5.816;2023-10-19T01:45:53;0.80;;;0.30;;
46643;SDS011;32371;51.032;5.816;2023-10-19T01:48:21;0.95;;;0.50;;
46643;SDS011;32371;51.032;5.816;2023-10-19T01:51:02;1.95;;;0.30;;
46643;SDS011;32371;51.032;5.816;2023-10-19T01:53:34;1.67;;;0.25;;
46643;SDS011;32371;51.032;5.816;2023-10-19T01:56:01;0.60;;;0.30;;
46643;SDS011;32371;51.032;5.816;2023-10-19T01:58:30;1.77;;;0.30;;
46643;SDS011;32371;51.032;5.816;2023-10-19T02:00:56;1.48;;;0.63;;
46643;SDS011;32371;51.032;5.816;2023-10-19T02:03:25;1.92;;;0.10;;
46643;SDS011;32371;51.032;5.816;2023-10-19T02:05:59;0.30;;;0.20;;
46643;SDS011;32371;51.032;5.816;2023-10-19T02:08:25;0.30;;;0.10;;
46643;SDS011;32371;51.032;5.816;2023-10-19T02:10:52;3.03;;;0.40;;
46643;SDS011;32371;51.032;5.816;2023-10-19T02:13:18;1.80;;;0.47;;
46643;SDS011;32371;51.032;5.816;2023-10-19T02:15:46;0.22;;;0.20;;
46643;SDS011;32371;51.032;5.816;2023-10-19T02:18:11;2.45;;;0.30;;
46643;SDS011;32371;51.032;5.816;2023-10-19T02:20:37;4.22;;;1.08;;
46643;SDS011;32371;51.032;5.816;2023-10-19T02:23:07;2.50;;;0.40;;
46643;SDS011;32371;51.032;5.816;2023-10-19T02:25:32;2.03;;;0.30;;
46643;SDS011;32371;51.032;5.816;2023-10-19T02:28:02;2.33;;;2.08;;
46643;SDS011;32371;51.032;5.816;2023-10-19T02:30:28;2.28;;;0.38;;
46643;SDS011;32371;51.032;5.816;2023-10-19T02:32:55;0.70;;;0.40;;
46643;SDS011;32371;51.032;5.816;2023-10-19T02:35:21;1.65;;;0.30;;
46643;SDS011;32371;51.032;5.816;2023-10-19T02:37:46;1.95;;;0.32;;
46643;SDS011;32371;51.032;5.816;2023-10-19T02:40:12;2.03;;;0.30;;
46643;SDS011;32371;51.032;5.816;2023-10-19T02:42:48;1.42;;;0.50;;
46643;SDS011;32371;51.032;5.816;2023-10-19T02:45:15;1.13;;;0.50;;
46643;SDS011;32371;51.032;5.816;2023-10-19T02:47:42;0.43;;;0.28;;
46643;SDS011;32371;51.032;5.816;2023-10-19T02:50:08;2.03;;;0.38;;
46643;SDS011;32371;51.032;5.816;2023-10-19T02:52:38;1.70;;;0.30;;
46643;SDS011;32371;51.032;5.816;2023-10-19T02:55:08;1.95;;;0.63;;
46643;SDS011;32371;51.032;5.816;2023-10-19T02:57:35;3.00;;;0.25;;
46643;SDS011;32371;51.032;5.816;2023-10-19T03:00:06;0.40;;;0.20;;
46643;SDS011;32371;51.032;5.816;2023-10-19T03:02:38;0.43;;;0.30;;
46643;SDS011;32371;51.032;5.816;2023-10-19T03:05:04;1.35;;;0.85;;
46643;SDS011;32371;51.032;5.816;2023-10-19T03:07:39;1.05;;;0.30;;
46643;SDS011;32371;51.032;5.816;2023-10-19T03:10:08;2.78;;;0.40;;
46643;SDS011;32371;51.032;5.816;2023-10-19T03:12:47;3.33;;;0.55;;
46643;SDS011;32371;51.032;5.816;2023-10-19T03:15:14;2.47;;;0.40;;
46643;SDS011;32371;51.032;5.816;2023-10-19T03:17:40;4.03;;;0.43;;
46643;SDS011;32371;51.032;5.816;2023-10-19T03:20:05;2.80;;;0.35;;
46643;SDS011;32371;51.032;5.816;2023-10-19T03:22:32;2.67;;;0.40;;
46643;SDS011;32371;51.032;5.816;2023-10-19T03:24:58;3.97;;;0.30;;
46643;SDS011;32371;51.032;5.816;2023-10-19T03:27:42;1.90;;;0.28;;
46643;SDS011;32371;51.032;5.816;2023-10-19T03:30:09;4.90;;;0.40;;
46643;SDS011;32371;51.032;5.816;2023-10-19T03:32:43;3.08;;;0.40;;
46643;SDS011;32371;51.032;5.816;2023-10-19T03:35:08;5.22;;;0.40;;
46643;SDS011;32371;51.032;5.816;2023-10-19T03:37:38;2.17;;;0.93;;
46643;SDS011;32371;51.032;5.816;2023-10-19T03:40:04;2.00;;;1.15;;
46643;SDS011;32371;51.032;5.816;2023-10-19T03:42:35;1.75;;;0.30;;
46643;SDS011;32371;51.032;5.816;2023-10-19T03:45:07;1.10;;;0.50;;
46643;SDS011;32371;51.032;5.816;2023-10-19T03:47:39;7.70;;;0.70;;
46643;SDS011;32371;51.032;5.816;2023-10-19T03:50:05;3.58;;;0.65;;
46643;SDS011;32371;51.032;5.816;2023-10-19T03:52:39;4.40;;;0.70;;
46643;SDS011;32371;51.032;5.816;2023-10-19T03:55:04;1.45;;;0.22;;
46643;SDS011;32371;51.032;5.816;2023-10-19T03:57:48;0.82;;;0.40;;
46643;SDS011;32371;51.032;5.816;2023-10-19T04:00:19;3.50;;;0.52;;
46643;SDS011;32371;51.032;5.816;2023-10-19T04:02:50;1.88;;;0.73;;
46643;SDS011;32371;51.032;5.816;2023-10-19T04:05:21;1.83;;;0.20;;
46643;SDS011;32371;51.032;5.816;2023-10-19T04:07:48;4.28;;;0.25;;
46643;SDS011;32371;51.032;5.816;2023-10-19T04:10:23;3.47;;;0.50;;
46643;SDS011;32371;51.032;5.816;2023-10-19T04:12:54;3.33;;;0.47;;
46643;SDS011;32371;51.032;5.816;2023-10-19T04:15:21;0.90;;;0.35;;
46643;SDS011;32371;51.032;5.816;2023-10-19T04:17:47;1.27;;;0.22;;
46643;SDS011;32371;51.032;5.816;2023-10-19T04:20:16;1.08;;;0.30;;
46643;SDS011;32371;51.032;5.816;2023-10-19T04:22:45;1.55;;;0.32;;
46643;SDS011;32371;51.032;5.816;2023-10-19T04:25:12;1.83;;;0.50;;
46643;SDS011;32371;51.032;5.816;2023-10-19T04:27:41;1.27;;;0.25;;
46643;SDS011;32371;51.032;5.816;2023-10-19T04:30:11;1.27;;;0.38;;
46643;SDS011;32371;51.032;5.816;2023-10-19T04:32:44;4.43;;;0.70;;
46643;SDS011;32371;51.032;5.816;2023-10-19T04:35:11;1.77;;;0.40;;
46643;SDS011;32371;51.032;5.816;2023-10-19T04:37:39;8.48;;;0.82;;
46643;SDS011;32371;51.032;5.816;2023-10-19T04:40:07;3.67;;;0.40;;
46643;SDS011;32371;51.032;5.816;2023-10-19T04:42:34;2.33;;;0.73;;
46643;SDS011;32371;51.032;5.816;2023-10-19T04:45:03;2.30;;;0.60;;
46643;SDS011;32371;51.032;5.816;2023-10-19T04:47:30;3.40;;;0.60;;
46643;SDS011;32371;51.032;5.816;2023-10-19T04:49:58;1.10;;;0.50;;
46643;SDS011;32371;51.032;5.816;2023-10-19T04:52:23;6.53;;;0.80;;
46643;SDS011;32371;51.032;5.816;2023-10-19T04:54:48;3.10;;;0.40;;
46643;SDS011;32371;51.032;5.816;2023-10-19T04:57:14;3.35;;;0.75;;
46643;SDS011;32371;51.032;5.816;2023-10-19T04:59:39;4.88;;;0.40;;
46643;SDS011;32371;51.032;5.816;2023-10-19T05:02:04;3.55;;;0.50;;
46643;SDS011;32371;51.032;5.816;2023-10-19T05:04:30;2.65;;;0.52;;
46643;SDS011;32371;51.032;5.816;2023-10-19T05:06:56;3.70;;;0.85;;
46643;SDS011;32371;51.032;5.816;2023-10-19T05:09:21;6.68;;;0.45;;
46643;SDS011;32371;51.032;5.816;2023-10-19T05:11:46;3.05;;;0.52;;
46643;SDS011;32371;51.032;5.816;2023-10-19T05:14:13;5.00;;;1.35;;
46643;SDS011;32371;51.032;5.816;2023-10-19T05:16:39;0.55;;;0.40;;
46643;SDS011;32371;51.032;5.816;2023-10-19T05:19:06;1.25;;;0.45;;
46643;SDS011;32371;51.032;5.816;2023-10-19T05:21:32;4.63;;;0.50;;
46643;SDS011;32371;51.032;5.816;2023-10-19T05:23:58;4.88;;;1.23;;
46643;SDS011;32371;51.032;5.816;2023-10-19T05:26:25;3.92;;;0.68;;
46643;SDS011;32371;51.032;5.816;2023-10-19T05:28:51;2.33;;;0.80;;
46643;SDS011;32371;51.032;5.816;2023-10-19T05:31:16;4.57;;;0.52;;
46643;SDS011;32371;51.032;5.816;2023-10-19T05:33:41;2.63;;;0.70;;
46643;SDS011;32371;51.032;5.816;2023-10-19T05:36:07;5.38;;;0.55;;
46643;SDS011;32371;51.032;5.816;2023-10-19T05:38:32;1.55;;;0.38;;
46643;SDS011;32371;51.032;5.816;2023-10-19T05:40:58;2.53;;;0.57;;
46643;SDS011;32371;51.032;5.816;2023-10-19T05:43:24;1.63;;;0.65;;
46643;SDS011;32371;51.032;5.816;2023-10-19T05:45:50;1.80;;;0.60;;
46643;SDS011;32371;51.032;5.816;2023-10-19T05:48:16;3.88;;;1.40;;
46643;SDS011;32371;51.032;5.816;2023-10-19T05:50:41;2.15;;;0.85;;
46643;SDS011;32371;51.032;5.816;2023-10-19T05:53:07;2.83;;;0.77;;
46643;SDS011;32371;51.032;5.816;2023-10-19T05:55:33;4.03;;;1.10;;
46643;SDS011;32371;51.032;5.816;2023-10-19T05:58:00;4.25;;;1.25;;
46643;SDS011;32371;51.032;5.816;2023-10-19T06:00:26;3.67;;;0.90;;
46643;SDS011;32371;51.032;5.816;2023-10-19T06:02:52;4.05;;;1.20;;
46643;SDS011;32371;51.032;5.816;2023-10-19T06:05:18;3.03;;;0.70;;
46643;SDS011;32371;51.032;5.816;2023-10-19T06:07:47;2.65;;;0.73;;
46643;SDS011;32371;51.032;5.816;2023-10-19T06:10:17;1.88;;;0.35;;
46643;SDS011;32371;51.032;5.816;2023-10-19T06:12:44;7.35;;;0.80;;
46643;SDS011;32371;51.032;5.816;2023-10-19T06:15:11;4.13;;;0.65;;
46643;SDS011;32371;51.032;5.816;2023-10-19T06:17:37;4.47;;;0.80;;
46643;SDS011;32371;51.032;5.816;2023-10-19T06:20:04;2.67;;;0.70;;
46643;SDS011;32371;51.032;5.816;2023-10-19T06:22:32;5.70;;;0.88;;
46643;SDS011;32371;51.032;5.816;2023-10-19T06:24:58;2.92;;;0.57;;
46643;SDS011;32371;51.032;5.816;2023-10-19T06:27:23;4.43;;;1.30;;
46643;SDS011;32371;51.032;5.816;2023-10-19T06:29:48;6.45;;;0.90;;
46643;SDS011;32371;51.032;5.816;2023-10-19T06:32:14;3.05;;;1.40;;
46643;SDS011;32371;51.032;5.816;2023-10-19T06:34:40;2.75;;;0.80;;
46643;SDS011;32371;51.032;5.816;2023-10-19T06:37:05;5.57;;;0.82;;
46643;SDS011;32371;51.032;5.816;2023-10-19T06:39:33;3.58;;;0.80;;
46643;SDS011;32371;51.032;5.816;2023-10-19T06:41:59;1.60;;;0.50;;
46643;SDS011;32371;51.032;5.816;2023-10-19T06:44:24;3.50;;;0.65;;
46643;SDS011;32371;51.032;5.816;2023-10-19T06:46:49;0.82;;;0.55;;
46643;SDS011;32371;51.032;5.816;2023-10-19T06:49:15;4.63;;;0.80;;
46643;SDS011;32371;51.032;5.816;2023-10-19T06:51:40;4.63;;;0.90;;
46643;SDS011;32371;51.032;5.816;2023-10-19T06:54:06;4.13;;;1.10;;
46643;SDS011;32371;51.032;5.816;2023-10-19T06:56:33;3.17;;;0.80;;
46643;SDS011;32371;51.032;5.816;2023-10-19T06:59:01;6.45;;;0.75;;
46643;SDS011;32371;51.032;5.816;2023-10-19T07:01:29;6.18;;;0.68;;
46643;SDS011;32371;51.032;5.816;2023-10-19T07:03:57;5.15;;;1.30;;
46643;SDS011;32371;51.032;5.816;2023-10-19T07:06:23;3.33;;;0.80;;
46643;SDS011;32371;51.032;5.816;2023-10-19T07:08:48;2.72;;;0.90;;
46643;SDS011;32371;51.032;5.816;2023-10-19T07:11:14;3.55;;;0.60;;
46643;SDS011;32371;51.032;5.816;2023-10-19T07:13:39;5.68;;;0.90;;
46643;SDS011;32371;51.032;5.816;2023-10-19T07:16:05;5.90;;;0.88;;
46643;SDS011;32371;51.032;5.816;2023-10-19T07:18:30;2.15;;;0.73;;
46643;SDS011;32371;51.032;5.816;2023-10-19T07:20:56;5.10;;;1.35;;
46643;SDS011;32371;51.032;5.816;2023-10-19T07:23:28;4.97;;;0.80;;
46643;SDS011;32371;51.032;5.816;2023-10-19T07:25:53;2.28;;;1.00;;
46643;SDS011;32371;51.032;5.816;2023-10-19T07:28:20;4.80;;;0.82;;
46643;SDS011;32371;51.032;5.816;2023-10-19T07:30:52;7.20;;;0.55;;
46643;SDS011;32371;51.032;5.816;2023-10-19T07:33:17;6.53;;;0.60;;
46643;SDS011;32371;51.032;5.816;2023-10-19T07:35:45;5.95;;;0.70;;
46643;SDS011;32371;51.032;5.816;2023-10-19T07:38:15;9.73;;;1.08;;
46643;SDS011;32371;51.032;5.816;2023-10-19T07:40:42;5.32;;;0.80;;
46643;SDS011;32371;51.032;5.816;2023-10-19T07:43:08;4.35;;;1.10;;
46643;SDS011;32371;51.032;5.816;2023-10-19T07:45:34;5.45;;;1.77;;
46643;SDS011;32371;51.032;5.816;2023-10-19T07:48:01;7.00;;;1.30;;
46643;SDS011;32371;51.032;5.816;2023-10-19T07:50:31;5.85;;;0.90;;
46643;SDS011;32371;51.032;5.816;2023-10-19T07:53:00;3.55;;;1.02;;
46643;SDS011;32371;51.032;5.816;2023-10-19T07:55:25;5.85;;;1.13;;
46643;SDS011;32371;51.032;5.816;2023-10-19T07:57:51;4.78;;;1.38;;
46643;SDS011;32371;51.032;5.816;2023-10-19T08:00:17;12.65;;;1.42;;
46643;SDS011;32371;51.032;5.816;2023-10-19T08:02:44;4.57;;;1.20;;
46643;SDS011;32371;51.032;5.816;2023-10-19T08:05:13;8.13;;;1.02;;
46643;SDS011;32371;51.032;5.816;2023-10-19T08:07:39;9.25;;;1.25;;
46643;SDS011;32371;51.032;5.816;2023-10-19T08:10:11;8.55;;;1.60;;
46643;SDS011;32371;51.032;5.816;2023-10-19T08:12:37;8.30;;;1.17;;
46643;SDS011;32371;51.032;5.816;2023-10-19T08:15:03;5.35;;;1.00;;
46643;SDS011;32371;51.032;5.816;2023-10-19T08:17:29;3.83;;;0.70;;
46643;SDS011;32371;51.032;5.816;2023-10-19T08:19:55;1.98;;;0.75;;
46643;SDS011;32371;51.032;5.816;2023-10-19T08:22:22;3.90;;;1.30;;
46643;SDS011;32371;51.032;5.816;2023-10-19T08:24:48;5.07;;;0.95;;
46643;SDS011;32371;51.032;5.816;2023-10-19T08:27:15;6.95;;;1.23;;
46643;SDS011;32371;51.032;5.816;2023-10-19T08:29:42;4.72;;;1.13;;
46643;SDS011;32371;51.032;5.816;2023-10-19T08:32:07;11.48;;;1.27;;
46643;SDS011;32371;51.032;5.816;2023-10-19T08:34:36;10.07;;;1.30;;
46643;SDS011;32371;51.032;5.816;2023-10-19T08:37:02;8.45;;;2.20;;
46643;SDS011;32371;51.032;5.816;2023-10-19T08:39:29;9.80;;;1.60;;
46643;SDS011;32371;51.032;5.816;2023-10-19T08:42:01;6.70;;;1.77;;
46643;SDS011;32371;51.032;5.816;2023-10-19T08:44:30;5.85;;;1.40;;
46643;SDS011;32371;51.032;5.816;2023-10-19T08:46:56;5.85;;;2.00;;
46643;SDS011;32371;51.032;5.816;2023-10-19T08:49:22;8.65;;;1.38;;
46643;SDS011;32371;51.032;5.816;2023-10-19T08:51:48;11.10;;;1.42;;
46643;SDS011;32371;51.032;5.816;2023-10-19T08:54:14;7.35;;;1.65;;
46643;SDS011;32371;51.032;5.816;2023-10-19T08:56:40;6.78;;;2.35;;
46643;SDS011;32371;51.032;5.816;2023-10-19T08:59:09;4.32;;;1.15;;
46643;SDS011;32371;51.032;5.816;2023-10-19T09:01:36;8.35;;;1.10;;
46643;SDS011;32371;51.032;5.816;2023-10-19T09:04:02;10.35;;;2.67;;
46643;SDS011;32371;51.032;5.816;2023-10-19T09:06:27;4.95;;;1.15;;
46643;SDS011;32371;51.032;5.816;2023-10-19T09:08:54;10.48;;;1.33;;
46643;SDS011;32371;51.032;5.816;2023-10-19T09:11:20;6.57;;;1.48;;
46643;SDS011;32371;51.032;5.816;2023-10-19T09:13:49;9.40;;;2.10;;
46643;SDS011;32371;51.032;5.816;2023-10-19T09:16:20;4.35;;;0.75;;
46643;SDS011;32371;51.032;5.816;2023-10-19T09:18:46;8.38;;;2.00;;
46643;SDS011;32371;51.032;5.816;2023-10-19T09:21:16;7.47;;;1.42;;
46643;SDS011;32371;51.032;5.816;2023-10-19T09:23:54;7.13;;;1.45;;
46643;SDS011;32371;51.032;5.816;2023-10-19T09:26:20;7.07;;;1.02;;
46643;SDS011;32371;51.032;5.816;2023-10-19T09:28:47;4.35;;;1.08;;
46643;SDS011;32371;51.032;5.816;2023-10-19T09:31:13;4.38;;;0.98;;
46643;SDS011;32371;51.032;5.816;2023-10-19T09:33:43;6.47;;;1.08;;
46643;SDS011;32371;51.032;5.816;2023-10-19T09:36:09;9.20;;;1.30;;
46643;SDS011;32371;51.032;5.816;2023-10-19T09:38:39;5.68;;;1.33;;
46643;SDS011;32371;51.032;5.816;2023-10-19T09:41:06;5.43;;;0.80;;
46643;SDS011;32371;51.032;5.816;2023-10-19T09:43:34;5.32;;;0.85;;
46643;SDS011;32371;51.032;5.816;2023-10-19T09:46:07;5.45;;;1.15;;
46643;SDS011;32371;51.032;5.816;2023-10-19T09:48:39;8.43;;;1.20;;
46643;SDS011;32371;51.032;5.816;2023-10-19T09:51:07;4.70;;;0.80;;
46643;SDS011;32371;51.032;5.816;2023-10-19T09:53:33;6.90;;;1.50;;
46643;SDS011;32371;51.032;5.816;2023-10-19T09:55:59;3.13;;;1.52;;
46643;SDS011;32371;51.032;5.816;2023-10-19T09:58:27;8.00;;;1.48;;
46643;SDS011;32371;51.032;5.816;2023-10-19T10:00:54;10.45;;;1.33;;
46643;SDS011;32371;51.032;5.816;2023-10-19T10:06:14;3.78;;;0.77;;
46643;SDS011;32371;51.032;5.816;2023-10-19T10:08:41;5.55;;;0.88;;
46643;SDS011;32371;51.032;5.816;2023-10-19T10:11:15;6.53;;;1.40;;
46643;SDS011;32371;51.032;5.816;2023-10-19T10:13:42;7.25;;;0.80;;
46643;SDS011;32371;51.032;5.816;2023-10-19T10:16:11;7.95;;;1.40;;
46643;SDS011;32371;51.032;5.816;2023-10-19T10:18:38;3.85;;;1.00;;
46643;SDS011;32371;51.032;5.816;2023-10-19T10:21:13;6.60;;;1.08;;
46643;SDS011;32371;51.032;5.816;2023-10-19T10:23:46;3.22;;;1.00;;
46643;SDS011;32371;51.032;5.816;2023-10-19T10:26:21;5.43;;;1.08;;
46643;SDS011;32371;51.032;5.816;2023-10-19T10:31:40;9.32;;;1.20;;
46643;SDS011;32371;51.032;5.816;2023-10-19T10:34:08;3.55;;;1.02;;
46643;SDS011;32371;51.032;5.816;2023-10-19T10:39:33;5.75;;;1.10;;
46643;SDS011;32371;51.032;5.816;2023-10-19T10:42:03;9.85;;;1.75;;
46643;SDS011;32371;51.032;5.816;2023-10-19T10:47:03;3.38;;;1.73;;
46643;SDS011;32371;51.032;5.816;2023-10-19T10:49:29;7.53;;;1.58;;
46643;SDS011;32371;51.032;5.816;2023-10-19T10:51:55;5.28;;;0.77;;
46643;SDS011;32371;51.032;5.816;2023-10-19T10:54:21;11.35;;;1.17;;
46643;SDS011;32371;51.032;5.816;2023-10-19T10:56:46;7.20;;;0.82;;
46643;SDS011;32371;51.032;5.816;2023-10-19T10:59:14;4.63;;;1.10;;
46643;SDS011;32371;51.032;5.816;2023-10-19T11:01:40;7.18;;;1.77;;
46643;SDS011;32371;51.032;5.816;2023-10-19T11:04:10;9.60;;;1.65;;
46643;SDS011;32371;51.032;5.816;2023-10-19T11:06:45;6.93;;;1.40;;
46643;SDS011;32371;51.032;5.816;2023-10-19T11:09:12;3.30;;;0.93;;
46643;SDS011;32371;51.032;5.816;2023-10-19T11:11:40;4.22;;;0.65;;
46643;SDS011;32371;51.032;5.816;2023-10-19T11:14:09;2.15;;;0.60;;
46643;SDS011;32371;51.032;5.816;2023-10-19T11:16:36;4.30;;;1.52;;
46643;SDS011;32371;51.032;5.816;2023-10-19T11:19:04;7.72;;;1.20;;
46643;SDS011;32371;51.032;5.816;2023-10-19T11:21:30;9.18;;;1.00;;
46643;SDS011;32371;51.032;5.816;2023-10-19T11:23:55;5.00;;;0.70;;
46643;SDS011;32371;51.032;5.816;2023-10-19T11:26:22;3.10;;;0.93;;
46643;SDS011;32371;51.032;5.816;2023-10-19T11:29:01;10.27;;;1.05;;
46643;SDS011;32371;51.032;5.816;2023-10-19T11:31:29;5.72;;;0.98;;
46643;SDS011;32371;51.032;5.816;2023-10-19T11:34:02;9.43;;;1.23;;
46643;SDS011;32371;51.032;5.816;2023-10-19T11:36:29;4.07;;;0.60;;
46643;SDS011;32371;51.032;5.816;2023-10-19T11:38:54;4.40;;;1.10;;
46643;SDS011;32371;51.032;5.816;2023-10-19T11:41:20;4.97;;;1.00;;
46643;SDS011;32371;51.032;5.816;2023-10-19T11:43:46;8.45;;;1.45;;
46643;SDS011;32371;51.032;5.816;2023-10-19T11:46:12;7.00;;;1.08;;
46643;SDS011;32371;51.032;5.816;2023-10-19T11:48:40;4.47;;;0.80;;
46643;SDS011;32371;51.032;5.816;2023-10-19T11:51:07;4.88;;;0.90;;
46643;SDS011;32371;51.032;5.816;2023-10-19T11:53:34;5.72;;;1.48;;
46643;SDS011;32371;51.032;5.816;2023-10-19T11:56:05;2.33;;;0.55;;
46643;SDS011;32371;51.032;5.816;2023-10-19T11:58:34;1.73;;;0.88;;
46643;SDS011;32371;51.032;5.816;2023-10-19T12:01:00;5.15;;;0.55;;
46643;SDS011;32371;51.032;5.816;2023-10-19T12:03:30;3.90;;;1.00;;
46643;SDS011;32371;51.032;5.816;2023-10-19T12:05:55;8.40;;;0.88;;
46643;SDS011;32371;51.032;5.816;2023-10-19T12:08:21;9.27;;;0.90;;
46643;SDS011;32371;51.032;5.816;2023-10-19T12:10:47;7.85;;;1.23;;
46643;SDS011;32371;51.032;5.816;2023-10-19T12:13:12;6.95;;;0.70;;
46643;SDS011;32371;51.032;5.816;2023-10-19T12:15:38;9.10;;;1.13;;
46643;SDS011;32371;51.032;5.816;2023-10-19T12:18:03;4.85;;;1.35;;
46643;SDS011;32371;51.032;5.816;2023-10-19T12:20:30;8.18;;;0.90;;
46643;SDS011;32371;51.032;5.816;2023-10-19T12:22:56;5.00;;;0.98;;
46643;SDS011;32371;51.032;5.816;2023-10-19T12:25:23;6.13;;;1.40;;
46643;SDS011;32371;51.032;5.816;2023-10-19T12:27:54;3.40;;;0.65;;
46643;SDS011;32371;51.032;5.816;2023-10-19T12:30:21;6.68;;;1.17;;
46643;SDS011;32371;51.032;5.816;2023-10-19T12:32:51;1.63;;;0.65;;
46643;SDS011;32371;51.032;5.816;2023-10-19T12:35:17;8.15;;;0.80;;
46643;SDS011;32371;51.032;5.816;2023-10-19T12:37:45;6.18;;;1.17;;
46643;SDS011;32371;51.032;5.816;2023-10-19T12:40:14;7.15;;;1.35;;
46643;SDS011;32371;51.032;5.816;2023-10-19T12:42:52;6.07;;;2.05;;
46643;SDS011;32371;51.032;5.816;2023-10-19T12:45:22;3.78;;;0.70;;
46643;SDS011;32371;51.032;5.816;2023-10-19T12:47:48;3.45;;;0.98;;
46643;SDS011;32371;51.032;5.816;2023-10-19T12:50:14;3.53;;;0.68;;
46643;SDS011;32371;51.032;5.816;2023-10-19T12:52:40;1.52;;;0.50;;
46643;SDS011;32371;51.032;5.816;2023-10-19T12:55:06;6.88;;;0.73;;
46643;SDS011;32371;51.032;5.816;2023-10-19T12:57:32;4.50;;;0.85;;
46643;SDS011;32371;51.032;5.816;2023-10-19T12:59:58;2.22;;;0.55;;
46643;SDS011;32371;51.032;5.816;2023-10-19T13:02:31;3.50;;;0.90;;
46643;SDS011;32371;51.032;5.816;2023-10-19T13:04:57;2.85;;;0.68;;
46643;SDS011;32371;51.032;5.816;2023-10-19T13:07:24;1.83;;;1.08;;
46643;SDS011;32371;51.032;5.816;2023-10-19T13:09:51;6.00;;;1.30;;
46643;SDS011;32371;51.032;5.816;2023-10-19T13:12:16;6.57;;;1.08;;
46643;SDS011;32371;51.032;5.816;2023-10-19T13:14:41;5.30;;;0.60;;
46643;SDS011;32371;51.032;5.816;2023-10-19T13:17:08;2.60;;;0.47;;
46643;SDS011;32371;51.032;5.816;2023-10-19T13:19:34;5.85;;;0.70;;
46643;SDS011;32371;51.032;5.816;2023-10-19T13:22:02;4.05;;;0.60;;
46643;SDS011;32371;51.032;5.816;2023-10-19T13:24:30;4.13;;;0.80;;
46643;SDS011;32371;51.032;5.816;2023-10-19T13:26:56;3.47;;;0.90;;
46643;SDS011;32371;51.032;5.816;2023-10-19T13:29:22;2.75;;;0.75;;
46643;SDS011;32371;51.032;5.816;2023-10-19T13:31:49;2.08;;;1.17;;
46643;SDS011;32371;51.032;5.816;2023-10-19T13:34:15;2.85;;;0.63;;
46643;SDS011;32371;51.032;5.816;2023-10-19T13:36:43;3.00;;;1.17;;
46643;SDS011;32371;51.032;5.816;2023-10-19T13:39:11;2.17;;;0.68;;
46643;SDS011;32371;51.032;5.816;2023-10-19T13:41:41;4.35;;;1.20;;
46643;SDS011;32371;51.032;5.816;2023-10-19T13:44:06;3.25;;;0.60;;
46643;SDS011;32371;51.032;5.816;2023-10-19T13:46:32;3.55;;;1.27;;
46643;SDS011;32371;51.032;5.816;2023-10-19T13:48:57;3.45;;;0.60;;
46643;SDS011;32371;51.032;5.816;2023-10-19T13:51:23;1.70;;;0.80;;
46643;SDS011;32371;51.032;5.816;2023-10-19T13:53:49;8.25;;;1.00;;
46643;SDS011;32371;51.032;5.816;2023-10-19T13:56:15;8.60;;;0.90;;
46643;SDS011;32371;51.032;5.816;2023-10-19T13:58:40;6.47;;;0.60;;
46643;SDS011;32371;51.032;5.816;2023-10-19T14:01:06;2.53;;;0.75;;
46643;SDS011;32371;51.032;5.816;2023-10-19T14:03:33;5.90;;;1.00;;
46643;SDS011;32371;51.032;5.816;2023-10-19T14:05:59;3.78;;;0.70;;
46643;SDS011;32371;51.032;5.816;2023-10-19T14:08:25;3.20;;;0.50;;
46643;SDS011;32371;51.032;5.816;2023-10-19T14:10:50;3.50;;;0.75;;
46643;SDS011;32371;51.032;5.816;2023-10-19T14:13:16;3.65;;;1.13;;
46643;SDS011;32371;51.032;5.816;2023-10-19T14:15:41;7.47;;;1.40;;
46643;SDS011;32371;51.032;5.816;2023-10-19T14:18:07;6.07;;;1.73;;
46643;SDS011;32371;51.032;5.816;2023-10-19T14:20:33;8.93;;;1.40;;
46643;SDS011;32371;51.032;5.816;2023-10-19T14:22:59;4.57;;;0.88;;
46643;SDS011;32371;51.032;5.816;2023-10-19T14:25:25;4.22;;;1.77;;
46643;SDS011;32371;51.032;5.816;2023-10-19T14:27:51;6.72;;;1.25;;
46643;SDS011;32371;51.032;5.816;2023-10-19T14:30:24;4.10;;;0.80;;
46643;SDS011;32371;51.032;5.816;2023-10-19T14:32:50;1.98;;;0.98;;
46643;SDS011;32371;51.032;5.816;2023-10-19T14:35:19;2.40;;;0.88;;
46643;SDS011;32371;51.032;5.816;2023-10-19T14:37:46;3.13;;;1.33;;
46643;SDS011;32371;51.032;5.816;2023-10-19T14:40:14;5.45;;;1.02;;
46643;SDS011;32371;51.032;5.816;2023-10-19T14:42:46;4.25;;;1.38;;
46643;SDS011;32371;51.032;5.816;2023-10-19T14:45:12;7.57;;;1.23;;
46643;SDS011;32371;51.032;5.816;2023-10-19T14:47:45;5.18;;;1.10;;
46643;SDS011;32371;51.032;5.816;2023-10-19T14:50:13;6.13;;;1.55;;
46643;SDS011;32371;51.032;5.816;2023-10-19T14:52:40;5.32;;;0.90;;
46643;SDS011;32371;51.032;5.816;2023-10-19T14:55:06;2.72;;;0.90;;
46643;SDS011;32371;51.032;5.816;2023-10-19T14:57:33;2.15;;;0.93;;
46643;SDS011;32371;51.032;5.816;2023-10-19T14:59:58;3.08;;;0.77;;
46643;SDS011;32371;51.032;5.816;2023-10-19T15:02:34;7.30;;;1.63;;
46643;SDS011;32371;51.032;5.816;2023-10-19T15:05:00;1.15;;;0.85;;
46643;SDS011;32371;51.032;5.816;2023-10-19T15:07:26;3.72;;;1.20;;
46643;SDS011;32371;51.032;5.816;2023-10-19T15:09:52;3.58;;;1.55;;
46643;SDS011;32371;51.032;5.816;2023-10-19T15:12:17;8.75;;;1.30;;
46643;SDS011;32371;51.032;5.816;2023-10-19T15:14:44;11.18;;;1.60;;
46643;SDS011;32371;51.032;5.816;2023-10-19T15:17:09;2.83;;;1.13;;
46643;SDS011;32371;51.032;5.816;2023-10-19T15:19:35;6.05;;;1.63;;
46643;SDS011;32371;51.032;5.816;2023-10-19T15:22:00;2.03;;;0.98;;